Johan Hjort — LDGJ — position and weather

sailwx.info

Track history (hours):
 
Tides and Currents Weather Stations Pressure Air Temp Water Temp Dewpoint Dewpoint Depression Visibility Wind Speed Wind Dir Waves Ship Positions

Oceanographic research ship Johan Hjort (Norway)

Detailed information on ship capabilities available from University of Delaware's Ocean Information Center and ARCUS's ALIAS (Arctic Logistics Information and Support) project.

Last reported at 2017-Jun-23 23:48 UTC. Time now 2017-Jun-24 05:18 UTC.
Position N 68°13' E 012°16'.

Type: Fishing. MMSI: 257139000.

Date/timePositionNaut miles runAvg speedWind from/ knotsBaromVisibWave heightAir tempDewpointWater temp
2017-Jun-23 23:48N 68°13' E 012°16'0 1.3
2017-Jun-23 23:30N 68°13' E 012°17'4 7.3
2017-Jun-23 23:00N 68°13' E 012°27'2147.4
2017-Jun-23 23:00N 68°12' E 012°24'612.9 040 / 191000.0 9.9 7.014.0
2017-Jun-23 22:30N 68°13' E 012°41'510.1
2017-Jun-23 22:00N 68°12' E 012°54'12381.3 040 / 161000.6 10.1 7.214.0
2017-Jun-23 21:59N 68°13' E 012°55'4 8.0
2017-Jun-23 21:30N 68°13' E 013°05'1 2.6
2017-Jun-23 21:00N 68°13' E 013°09'2686.8
2017-Jun-23 21:00N 68°12' E 013°06'2 4.4 030 / 121001.2 9.9 6.914.1
2017-Jun-23 20:29N 68°13' E 013°11'3 7.2
2017-Jun-23 20:01N 68°15' E 013°19'510.1
2017-Jun-23 19:30N 68°19' E 013°28'510.0
2017-Jun-23 19:00N 68°23' E 013°36'61043.3
2017-Jun-23 19:00N 68°18' E 013°30'1021.3 030 / 161002.7 11.3 7.014.2
2017-Jun-23 18:31N 68°27' E 013°43'510.0
2017-Jun-23 18:00N 68°31' E 013°52'2800.6
2017-Jun-23 18:00N 68°30' E 013°48'713.6 030 / 171003.7 10.2 5.814.0
2017-Jun-23 17:30N 68°35' E 013°59'5 9.9
2017-Jun-23 17:00N 68°39' E 014°08'3389.0
2017-Jun-23 17:00N 68°36' E 014°06'815.7 200 / 211004.4 9.5 5.514.1
2017-Jun-23 16:30N 68°43' E 014°14'5 9.8
2017-Jun-23 16:00N 68°43' E 014°01'5 9.6
2017-Jun-23 15:30N 68°43' E 013°48'4 8.0
2017-Jun-23 15:00N 68°43' E 013°37'2 2.0
2017-Jun-23 14:00N 68°43' E 013°32'3 6.9
2017-Jun-23 13:30N 68°43' E 013°22'510.3
2017-Jun-23 13:00N 68°42' E 013°08'36 1.4
2017-Jun-22 11:28N 69°13' E 014°03'2 4.2
2017-Jun-22 11:00N 69°13' E 014°09'2 3.5
2017-Jun-22 10:30N 69°13' E 014°13'1 1.5
2017-Jun-22 09:59N 69°13' E 014°12'0 0.6
2017-Jun-22 09:30N 69°13' E 014°13'1 2.6
2017-Jun-22 09:00N 69°14' E 014°15'0 0.5
2017-Jun-22 08:30N 69°13' E 014°16'1 1.7
2017-Jun-22 07:59N 69°13' E 014°18'1 2.3
2017-Jun-22 07:30N 69°13' E 014°22'5 9.4
2017-Jun-22 07:00N 69°13' E 014°35'4 7.9
2017-Jun-22 06:30N 69°13' E 014°46'1 2.7
2017-Jun-22 06:00N 69°13' E 014°50'1 1.9
2017-Jun-22 05:30N 69°13' E 014°52'2 4.0
2017-Jun-22 05:00N 69°13' E 014°58'2 3.4
2017-Jun-22 04:30N 69°13' E 015°03'1 2.1
2017-Jun-22 04:00N 69°13' E 015°06'1 2.4
2017-Jun-22 03:30N 69°13' E 015°09'1 2.3
2017-Jun-22 03:00N 69°13' E 015°12'3 6.1
2017-Jun-22 02:30N 69°13' E 015°21'510.1
2017-Jun-22 02:00N 69°13' E 015°35'4 8.0
2017-Jun-22 01:30N 69°15' E 015°46'510.8
2017-Jun-22 01:00N 69°20' E 015°51'510.3
2017-Jun-22 00:30N 69°24' E 016°01'510.2
2017-Jun-22 00:00N 69°26' E 016°13'5 9.9
2017-Jun-21 23:29N 69°28' E 016°26'510.1
2017-Jun-21 23:00N 69°31' E 016°38'510.4
2017-Jun-21 22:30N 69°33' E 016°51'510.5
2017-Jun-21 22:00N 69°35' E 017°05'510.6
2017-Jun-21 21:30N 69°37' E 017°19'510.6
2017-Jun-21 21:00N 69°40' E 017°33'510.2
2017-Jun-21 20:30N 69°39' E 017°48'510.4
2017-Jun-21 20:00N 69°35' E 017°56'510.5
2017-Jun-21 19:31N 69°31' E 018°07'510.1
2017-Jun-21 19:00N 69°31' E 018°22'510.5
2017-Jun-21 18:30N 69°33' E 018°36'4 8.2
2017-Jun-21 18:00N 69°34' E 018°47'5 9.9
2017-Jun-21 17:30N 69°38' E 018°56'1 2.3
2017-Jun-21 16:59N 69°39' E 018°58'0 0.0
2017-Jun-21 16:29N 69°39' E 018°58'0 0.0
2017-Jun-21 15:59N 69°39' E 018°58'0 0.0
2017-Jun-21 15:29N 69°39' E 018°58'0 0.0
2017-Jun-21 14:59N 69°39' E 018°58'0 0.0
2017-Jun-21 14:29N 69°39' E 018°58'0 0.0
2017-Jun-21 11:38N 69°39' E 018°58'0 0.0
2017-Jun-21 10:59N 69°39' E 018°58'0 0.0
2017-Jun-20 20:44N 69°39' E 018°58'0 0.0
2017-Jun-20 08:43N 69°39' E 018°58'24 1.4
2017-Jun-19 16:09N 69°38' E 017°50'311.0
2017-Jun-19 15:52N 69°41' E 017°49'3 1.0
2017-Jun-19 13:09N 69°43' E 017°42'1 5.9
2017-Jun-19 12:59N 69°43' E 017°40'2 3.5
2017-Jun-19 12:30N 69°43' E 017°35'2 4.5
2017-Jun-19 12:00N 69°43' E 017°28'2 4.7
2017-Jun-19 11:30N 69°43' E 017°21'510.1
2017-Jun-19 11:01N 69°43' E 017°07'4 8.0
2017-Jun-19 10:31N 69°43' E 016°56'2 3.1
2017-Jun-19 10:00N 69°43' E 016°51'2 3.7
2017-Jun-19 09:31N 69°43' E 016°46'2 3.4
2017-Jun-19 09:00N 69°43' E 016°41'510.6
2017-Jun-19 08:30N 69°43' E 016°26'510.5
2017-Jun-19 08:00N 69°43' E 016°11'4 8.0
2017-Jun-19 07:30N 69°43' E 015°59'2 3.1
2017-Jun-19 07:00N 69°43' E 015°55'1 2.6
2017-Jun-19 06:31N 69°43' E 015°51'1 2.1
2017-Jun-19 06:01N 69°43' E 015°48'0 0.4
2017-Jun-19 05:30N 69°43' E 015°48'54 1.3
2017-Jun-17 12:48N 70°13' E 017°57'310.4
2017-Jun-17 12:30N 70°13' E 018°06'2 4.5
2017-Jun-17 12:00N 70°13' E 018°13'2 4.3
2017-Jun-17 11:30N 70°13' E 018°19'2 4.6
2017-Jun-17 11:00N 70°13' E 018°26'1 2.9
2017-Jun-17 10:30N 70°13' E 018°30'1 1.1
2017-Jun-17 10:00N 70°13' E 018°32'5 9.5
2017-Jun-17 09:31N 70°16' E 018°41'611.1
2017-Jun-17 09:01N 70°19' E 018°56'611.2
2017-Jun-17 08:30N 70°21' E 019°11'510.8
2017-Jun-17 08:00N 70°23' E 019°26'510.6
2017-Jun-17 07:30N 70°26' E 019°40'510.6
2017-Jun-17 07:00N 70°28' E 019°54'510.6
2017-Jun-17 06:30N 70°30' E 020°08'510.4
2017-Jun-17 06:00N 70°33' E 020°22'5 9.7
2017-Jun-17 05:30N 70°33' E 020°37'510.0
2017-Jun-17 05:00N 70°35' E 020°50'510.1
2017-Jun-17 04:30N 70°37' E 021°05'510.0
2017-Jun-17 04:00N 70°39' E 021°19'5 9.9
2017-Jun-17 03:30N 70°40' E 021°33'510.0
2017-Jun-17 03:00N 70°42' E 021°47'510.3
2017-Jun-17 02:30N 70°42' E 022°03'3 5.7
2017-Jun-17 02:00N 70°43' E 022°11'510.0
2017-Jun-17 01:30N 70°43' E 021°56'4 7.0
2017-Jun-17 01:00N 70°43' E 021°45'1 1.2
2017-Jun-17 00:31N 70°43' E 021°44'4 8.0
2017-Jun-17 00:00N 70°42' E 021°31'  
2017-Jun-14 14:41N 71°13' E 022°55'710.2
2017-Jun-14 14:00N 71°13' E 023°16'3 5.5
2017-Jun-14 13:30N 71°13' E 023°25'1 2.7
2017-Jun-14 13:00N 71°13' E 023°29'1 2.6
2017-Jun-14 12:30N 71°13' E 023°25'0 1.0
2017-Jun-14 12:00N 71°13' E 023°24'1 2.9
2017-Jun-14 11:30N 71°13' E 023°29'2 3.1
2017-Jun-14 11:00N 71°13' E 023°33'3 6.6
2017-Jun-14 10:30N 71°13' E 023°44'4 7.1
2017-Jun-14 10:00N 71°14' E 023°54'5 9.7
2017-Jun-14 09:30N 71°19' E 023°55'  
Track history (hours):
 
Tides and Currents Weather Stations Pressure Air Temp Water Temp Dewpoint Dewpoint Depression Visibility Wind Speed Wind Dir Waves Ship Positions

Oceanographic research ship Johan Hjort (Norway)

Detailed information on ship capabilities available from University of Delaware's Ocean Information Center and ARCUS's ALIAS (Arctic Logistics Information and Support) project.

Last reported at 2017-Jun-23 23:48 UTC. Time now 2017-Jun-24 05:18 UTC.
Position N 68°13' E 012°16'.

Type: Fishing. MMSI: 257139000.

Date/timePositionNaut miles runAvg speedWind from/ knotsBaromVisibWave heightAir tempDewpointWater temp
2017-Jun-23 23:48N 68°13' E 012°16'0 1.3
2017-Jun-23 23:30N 68°13' E 012°17'4 7.3
2017-Jun-23 23:00N 68°13' E 012°27'2147.4
2017-Jun-23 23:00N 68°12' E 012°24'612.9 040 / 191000.0 9.9 7.014.0
2017-Jun-23 22:30N 68°13' E 012°41'510.1
2017-Jun-23 22:00N 68°12' E 012°54'12381.3 040 / 161000.6 10.1 7.214.0
2017-Jun-23 21:59N 68°13' E 012°55'4 8.0
2017-Jun-23 21:30N 68°13' E 013°05'1 2.6
2017-Jun-23 21:00N 68°13' E 013°09'2686.8
2017-Jun-23 21:00N 68°12' E 013°06'2 4.4 030 / 121001.2 9.9 6.914.1
2017-Jun-23 20:29N 68°13' E 013°11'3 7.2
2017-Jun-23 20:01N 68°15' E 013°19'510.1
2017-Jun-23 19:30N 68°19' E 013°28'510.0
2017-Jun-23 19:00N 68°23' E 013°36'61043.3
2017-Jun-23 19:00N 68°18' E 013°30'1021.3 030 / 161002.7 11.3 7.014.2
2017-Jun-23 18:31N 68°27' E 013°43'510.0
2017-Jun-23 18:00N 68°31' E 013°52'2800.6
2017-Jun-23 18:00N 68°30' E 013°48'713.6 030 / 171003.7 10.2 5.814.0
2017-Jun-23 17:30N 68°35' E 013°59'5 9.9
2017-Jun-23 17:00N 68°39' E 014°08'3389.0
2017-Jun-23 17:00N 68°36' E 014°06'815.7 200 / 211004.4 9.5 5.514.1
2017-Jun-23 16:30N 68°43' E 014°14'5 9.8
2017-Jun-23 16:00N 68°43' E 014°01'5 9.6
2017-Jun-23 15:30N 68°43' E 013°48'4 8.0
2017-Jun-23 15:00N 68°43' E 013°37'2 2.0
2017-Jun-23 14:00N 68°43' E 013°32'3 6.9
2017-Jun-23 13:30N 68°43' E 013°22'510.3
2017-Jun-23 13:00N 68°42' E 013°08'36 1.4
2017-Jun-22 11:28N 69°13' E 014°03'2 4.2
2017-Jun-22 11:00N 69°13' E 014°09'2 3.5
2017-Jun-22 10:30N 69°13' E 014°13'1 1.5
2017-Jun-22 09:59N 69°13' E 014°12'0 0.6
2017-Jun-22 09:30N 69°13' E 014°13'1 2.6
2017-Jun-22 09:00N 69°14' E 014°15'0 0.5
2017-Jun-22 08:30N 69°13' E 014°16'1 1.7
2017-Jun-22 07:59N 69°13' E 014°18'1 2.3
2017-Jun-22 07:30N 69°13' E 014°22'5 9.4
2017-Jun-22 07:00N 69°13' E 014°35'4 7.9
2017-Jun-22 06:30N 69°13' E 014°46'1 2.7
2017-Jun-22 06:00N 69°13' E 014°50'1 1.9
2017-Jun-22 05:30N 69°13' E 014°52'2 4.0
2017-Jun-22 05:00N 69°13' E 014°58'2 3.4
2017-Jun-22 04:30N 69°13' E 015°03'1 2.1
2017-Jun-22 04:00N 69°13' E 015°06'1 2.4
2017-Jun-22 03:30N 69°13' E 015°09'1 2.3
2017-Jun-22 03:00N 69°13' E 015°12'3 6.1
2017-Jun-22 02:30N 69°13' E 015°21'510.1
2017-Jun-22 02:00N 69°13' E 015°35'4 8.0
2017-Jun-22 01:30N 69°15' E 015°46'510.8
2017-Jun-22 01:00N 69°20' E 015°51'510.3
2017-Jun-22 00:30N 69°24' E 016°01'510.2
2017-Jun-22 00:00N 69°26' E 016°13'5 9.9
2017-Jun-21 23:29N 69°28' E 016°26'510.1
2017-Jun-21 23:00N 69°31' E 016°38'510.4
2017-Jun-21 22:30N 69°33' E 016°51'510.5
2017-Jun-21 22:00N 69°35' E 017°05'510.6
2017-Jun-21 21:30N 69°37' E 017°19'510.6
2017-Jun-21 21:00N 69°40' E 017°33'510.2
2017-Jun-21 20:30N 69°39' E 017°48'510.4
2017-Jun-21 20:00N 69°35' E 017°56'510.5
2017-Jun-21 19:31N 69°31' E 018°07'510.1
2017-Jun-21 19:00N 69°31' E 018°22'510.5
2017-Jun-21 18:30N 69°33' E 018°36'4 8.2
2017-Jun-21 18:00N 69°34' E 018°47'5 9.9
2017-Jun-21 17:30N 69°38' E 018°56'1 2.3
2017-Jun-21 16:59N 69°39' E 018°58'0 0.0
2017-Jun-21 16:29N 69°39' E 018°58'0 0.0
2017-Jun-21 15:59N 69°39' E 018°58'0 0.0
2017-Jun-21 15:29N 69°39' E 018°58'0 0.0
2017-Jun-21 14:59N 69°39' E 018°58'0 0.0
2017-Jun-21 14:29N 69°39' E 018°58'0 0.0
2017-Jun-21 11:38N 69°39' E 018°58'0 0.0
2017-Jun-21 10:59N 69°39' E 018°58'0 0.0
2017-Jun-20 20:44N 69°39' E 018°58'0 0.0
2017-Jun-20 08:43N 69°39' E 018°58'24 1.4
2017-Jun-19 16:09N 69°38' E 017°50'311.0
2017-Jun-19 15:52N 69°41' E 017°49'3 1.0
2017-Jun-19 13:09N 69°43' E 017°42'1 5.9
2017-Jun-19 12:59N 69°43' E 017°40'2 3.5
2017-Jun-19 12:30N 69°43' E 017°35'2 4.5
2017-Jun-19 12:00N 69°43' E 017°28'2 4.7
2017-Jun-19 11:30N 69°43' E 017°21'510.1
2017-Jun-19 11:01N 69°43' E 017°07'4 8.0
2017-Jun-19 10:31N 69°43' E 016°56'2 3.1
2017-Jun-19 10:00N 69°43' E 016°51'2 3.7
2017-Jun-19 09:31N 69°43' E 016°46'2 3.4
2017-Jun-19 09:00N 69°43' E 016°41'510.6
2017-Jun-19 08:30N 69°43' E 016°26'510.5
2017-Jun-19 08:00N 69°43' E 016°11'4 8.0
2017-Jun-19 07:30N 69°43' E 015°59'2 3.1
2017-Jun-19 07:00N 69°43' E 015°55'1 2.6
2017-Jun-19 06:31N 69°43' E 015°51'1 2.1
2017-Jun-19 06:01N 69°43' E 015°48'0 0.4
2017-Jun-19 05:30N 69°43' E 015°48'54 1.3
2017-Jun-17 12:48N 70°13' E 017°57'310.4
2017-Jun-17 12:30N 70°13' E 018°06'2 4.5
2017-Jun-17 12:00N 70°13' E 018°13'2 4.3
2017-Jun-17 11:30N 70°13' E 018°19'2 4.6
2017-Jun-17 11:00N 70°13' E 018°26'1 2.9
2017-Jun-17 10:30N 70°13' E 018°30'1 1.1
2017-Jun-17 10:00N 70°13' E 018°32'5 9.5
2017-Jun-17 09:31N 70°16' E 018°41'611.1
2017-Jun-17 09:01N 70°19' E 018°56'611.2
2017-Jun-17 08:30N 70°21' E 019°11'510.8
2017-Jun-17 08:00N 70°23' E 019°26'510.6
2017-Jun-17 07:30N 70°26' E 019°40'510.6
2017-Jun-17 07:00N 70°28' E 019°54'510.6
2017-Jun-17 06:30N 70°30' E 020°08'510.4
2017-Jun-17 06:00N 70°33' E 020°22'5 9.7
2017-Jun-17 05:30N 70°33' E 020°37'510.0
2017-Jun-17 05:00N 70°35' E 020°50'510.1
2017-Jun-17 04:30N 70°37' E 021°05'510.0
2017-Jun-17 04:00N 70°39' E 021°19'5 9.9
2017-Jun-17 03:30N 70°40' E 021°33'510.0
2017-Jun-17 03:00N 70°42' E 021°47'510.3
2017-Jun-17 02:30N 70°42' E 022°03'3 5.7
2017-Jun-17 02:00N 70°43' E 022°11'510.0
2017-Jun-17 01:30N 70°43' E 021°56'4 7.0
2017-Jun-17 01:00N 70°43' E 021°45'1 1.2
2017-Jun-17 00:31N 70°43' E 021°44'4 8.0
2017-Jun-17 00:00N 70°42' E 021°31'  
2017-Jun-14 14:41N 71°13' E 022°55'710.2
2017-Jun-14 14:00N 71°13' E 023°16'3 5.5
2017-Jun-14 13:30N 71°13' E 023°25'1 2.7
2017-Jun-14 13:00N 71°13' E 023°29'1 2.6
2017-Jun-14 12:30N 71°13' E 023°25'0 1.0
2017-Jun-14 12:00N 71°13' E 023°24'1 2.9
2017-Jun-14 11:30N 71°13' E 023°29'2 3.1
2017-Jun-14 11:00N 71°13' E 023°33'3 6.6
2017-Jun-14 10:30N 71°13' E 023°44'4 7.1
2017-Jun-14 10:00N 71°14' E 023°54'5 9.7
2017-Jun-14 09:30N 71°19' E 023°55'  

Dump ship's entire track history